Time;durP1;ratioP1;P1;durP2;ratioP2;P2;SDS_P1;SDS_P2;PMS_P1;PMS_P2;Temp;Humidity;BMP_temperature;BMP_pressure;BME280_temperature;BME280_humidity;BME280_pressure;Samples;Min_cycle;Max_cycle;Signal;HPM_P1;HPM_P2
2022/03/11 00:02:06;;;;;;;24.45;8.00;;;-0.10;79.70;;;;;;5033228;28;20034;-85
2022/03/11 00:04:32;;;;;;;17.08;7.85;;;-0.10;80.40;;;;;;5030312;28;20010;-84
2022/03/11 00:06:57;;;;;;;18.58;8.32;;;-0.10;80.80;;;;;;5017486;28;20022;-85
2022/03/11 00:09:25;;;;;;;23.90;8.35;;;-0.10;80.90;;;;;;5011442;28;20038;-86
2022/03/11 00:11:50;;;;;;;22.27;8.38;;;-0.10;80.50;;;;;;5036019;28;20077;-84
2022/03/11 00:14:16;;;;;;;25.98;8.85;;;0.00;80.00;;;;;;5032553;28;20033;-86
2022/03/11 00:16:42;;;;;;;19.70;7.97;;;0.00;79.70;;;;;;5028673;28;20032;-85
2022/03/11 00:19:08;;;;;;;17.92;8.23;;;0.20;79.70;;;;;;5018523;28;20045;-84
2022/03/11 00:21:34;;;;;;;21.27;7.63;;;0.10;79.60;;;;;;5006161;28;20026;-84
2022/03/11 00:23:59;;;;;;;22.25;8.30;;;0.10;79.60;;;;;;5006677;28;20161;-86
2022/03/11 00:26:25;;;;;;;21.13;8.82;;;0.10;79.60;;;;;;5012045;28;20038;-86
2022/03/11 00:28:51;;;;;;;23.92;7.93;;;0.20;79.80;;;;;;5019659;28;20101;-84
2022/03/11 00:31:17;;;;;;;20.45;8.00;;;0.20;79.70;;;;;;5034424;28;20041;-84
2022/03/11 00:33:43;;;;;;;19.55;8.27;;;0.20;79.60;;;;;;5013696;28;20037;-84
2022/03/11 00:36:09;;;;;;;21.52;7.90;;;0.20;79.30;;;;;;5015684;28;20466;-83
2022/03/11 00:38:36;;;;;;;23.65;9.35;;;0.30;79.20;;;;;;5022093;28;20022;-86
2022/03/11 00:41:02;;;;;;;20.77;7.13;;;0.30;79.40;;;;;;5033636;28;20085;-87
2022/03/11 00:43:28;;;;;;;17.20;7.35;;;0.30;79.40;;;;;;5028207;28;20033;-84
2022/03/11 00:45:55;;;;;;;16.38;7.28;;;0.20;79.30;;;;;;5021130;28;20053;-85
2022/03/11 00:48:23;;;;;;;20.50;8.15;;;0.20;79.40;;;;;;5034440;28;20025;-85
2022/03/11 00:50:49;;;;;;;18.23;8.38;;;0.20;79.60;;;;;;5036374;28;20014;-82
2022/03/11 00:53:15;;;;;;;16.33;7.20;;;0.20;79.60;;;;;;5037083;28;20038;-84
2022/03/11 00:55:41;;;;;;;23.25;8.63;;;0.20;79.40;;;;;;5029146;28;20059;-85
2022/03/11 00:58:06;;;;;;;19.25;7.60;;;0.20;79.30;;;;;;4985103;28;20043;-85
2022/03/11 01:00:32;;;;;;;19.90;7.38;;;0.20;79.20;;;;;;5016300;28;20034;-87
2022/03/11 01:02:58;;;;;;;14.70;6.30;;;0.20;78.90;;;;;;5025662;28;20056;-85
2022/03/11 01:05:25;;;;;;;17.38;7.38;;;0.20;78.60;;;;;;5030690;28;20034;-84
2022/03/11 01:07:51;;;;;;;14.73;6.53;;;0.20;78.40;;;;;;5032240;28;20018;-87
2022/03/11 01:10:17;;;;;;;16.85;7.15;;;0.10;78.30;;;;;;5036202;28;20042;-86
2022/03/11 01:12:43;;;;;;;18.98;7.13;;;0.10;78.10;;;;;;5031414;28;20037;-86
2022/03/11 01:15:10;;;;;;;14.32;6.82;;;0.10;78.20;;;;;;5016099;28;20049;-87
2022/03/11 01:17:36;;;;;;;21.25;7.18;;;0.10;77.90;;;;;;5015966;28;20025;-86
2022/03/11 01:20:06;;;;;;;14.40;6.72;;;0.10;77.80;;;;;;5017128;28;20022;-84
2022/03/11 01:22:33;;;;;;;17.05;6.97;;;0.10;77.50;;;;;;5004306;28;20030;-87
2022/03/11 01:24:59;;;;;;;15.05;7.15;;;0.10;77.90;;;;;;5004669;28;20034;-85
2022/03/11 01:27:26;;;;;;;15.40;7.30;;;0.00;77.60;;;;;;5020812;28;20037;-85
2022/03/11 01:29:52;;;;;;;15.15;7.13;;;0.00;78.00;;;;;;5010196;28;20141;-87
2022/03/11 01:32:17;;;;;;;17.40;6.78;;;0.00;77.60;;;;;;5021695;28;20481;-85
2022/03/11 01:34:44;;;;;;;13.35;6.95;;;0.00;77.10;;;;;;5034654;28;20033;-85
2022/03/11 01:37:09;;;;;;;16.73;6.55;;;0.00;77.10;;;;;;5035476;28;20134;-84
2022/03/11 01:39:37;;;;;;;14.55;6.43;;;-0.10;77.10;;;;;;5034960;28;20030;-87
2022/03/11 01:42:03;;;;;;;17.55;6.20;;;-0.10;77.90;;;;;;5018193;28;20026;-84
2022/03/11 01:44:29;;;;;;;16.70;6.78;;;-0.10;77.70;;;;;;5006557;28;20085;-85
2022/03/11 01:46:55;;;;;;;13.38;6.07;;;-0.10;77.20;;;;;;5016514;28;20030;-84
2022/03/11 01:49:22;;;;;;;15.68;5.95;;;-0.20;76.90;;;;;;5031829;28;20032;-86
2022/03/11 01:51:48;;;;;;;15.05;6.30;;;-0.30;76.50;;;;;;5037653;28;20026;-84
2022/03/11 01:54:14;;;;;;;11.63;5.18;;;-0.20;76.60;;;;;;5033484;28;20109;-85
2022/03/11 01:56:40;;;;;;;20.67;5.72;;;-0.30;76.20;;;;;;5027235;28;20085;-85
2022/03/11 01:59:07;;;;;;;13.25;6.10;;;-0.30;75.90;;;;;;5032760;28;20068;-86
2022/03/11 02:01:33;;;;;;;12.20;6.10;;;-0.30;76.00;;;;;;5032920;28;20037;-85
2022/03/11 02:03:59;;;;;;;13.73;5.65;;;-0.40;75.80;;;;;;5036178;28;20010;-84
2022/03/11 02:06:29;;;;;;;11.40;5.25;;;-0.40;75.70;;;;;;5037062;28;20049;-84
2022/03/11 02:08:55;;;;;;;11.45;5.35;;;-0.40;75.80;;;;;;5035541;28;20030;-84
2022/03/11 02:11:21;;;;;;;11.95;4.72;;;-0.50;75.30;;;;;;5036562;28;20041;-83
2022/03/11 02:13:56;;;;;;;15.80;5.03;;;-0.40;75.60;;;;;;5035896;28;20033;-84
2022/03/11 02:16:29;;;;;;;8.82;4.85;;;-0.50;75.40;;;;;;5036656;28;20021;-84
2022/03/11 02:18:56;;;;;;;12.18;5.60;;;-0.60;75.70;;;;;;5024336;28;20045;-83
2022/03/11 02:21:24;;;;;;;10.63;5.07;;;-0.60;76.60;;;;;;5015387;28;20026;-85
2022/03/11 02:23:58;;;;;;;11.15;5.95;;;-0.60;77.10;;;;;;5012660;28;20022;-85
2022/03/11 02:26:25;;;;;;;14.52;5.82;;;-0.60;78.20;;;;;;5012619;28;20018;-84
2022/03/11 02:28:53;;;;;;;12.50;5.57;;;-0.60;77.70;;;;;;5013995;28;20025;-85
2022/03/11 02:31:21;;;;;;;8.93;5.00;;;-0.70;77.70;;;;;;5019943;28;20026;-86
2022/03/11 02:33:47;;;;;;;14.75;5.72;;;-0.70;78.50;;;;;;5034076;28;20010;-85
2022/03/11 02:36:13;;;;;;;11.13;5.43;;;-0.70;78.30;;;;;;5030631;28;20026;-86
2022/03/11 02:38:39;;;;;;;14.32;5.85;;;-0.80;78.40;;;;;;5024204;28;20041;-84
2022/03/11 02:41:06;;;;;;;15.80;5.82;;;-0.80;78.60;;;;;;4993175;28;20007;-85
2022/03/11 02:43:32;;;;;;;10.15;5.43;;;-0.80;78.50;;;;;;4973807;28;20088;-85
2022/03/11 02:45:59;;;;;;;14.73;5.72;;;-0.80;78.80;;;;;;4993386;28;20045;-85
2022/03/11 02:48:25;;;;;;;12.20;5.45;;;-0.80;78.80;;;;;;5008088;28;20081;-85
2022/03/11 02:50:50;;;;;;;11.98;5.68;;;-0.80;78.90;;;;;;5007195;28;20034;-85
2022/03/11 02:53:16;;;;;;;13.02;5.70;;;-0.80;78.80;;;;;;5006332;28;20030;-86
2022/03/11 02:55:42;;;;;;;12.02;5.45;;;-0.90;78.40;;;;;;5004054;28;20031;-85
2022/03/11 02:58:08;;;;;;;15.63;5.28;;;-0.90;78.40;;;;;;4987538;28;20027;-84
2022/03/11 03:00:37;;;;;;;10.30;5.60;;;-0.90;78.50;;;;;;5005273;28;20022;-85
2022/03/11 03:03:03;;;;;;;13.27;5.72;;;-0.90;78.60;;;;;;5014038;28;20033;-87
2022/03/11 03:05:30;;;;;;;11.48;5.28;;;-0.90;78.60;;;;;;4986433;28;20063;-84
2022/03/11 03:07:57;;;;;;;12.57;5.25;;;-1.00;78.70;;;;;;4997975;28;20019;-84
2022/03/11 03:10:24;;;;;;;10.50;5.25;;;-1.00;78.70;;;;;;5008079;28;20044;-85
2022/03/11 03:12:52;;;;;;;12.02;5.00;;;-1.00;78.80;;;;;;5029305;28;20081;-86
2022/03/11 03:15:19;;;;;;;11.60;5.13;;;-1.00;78.70;;;;;;5029381;28;20450;-86
2022/03/11 03:17:44;;;;;;;16.33;5.60;;;-1.00;78.70;;;;;;5034433;28;20068;-84
2022/03/11 03:20:11;;;;;;;11.32;4.68;;;-1.00;78.70;;;;;;5018964;28;20038;-86
2022/03/11 03:22:36;;;;;;;10.93;5.38;;;-1.00;78.70;;;;;;5019070;28;20014;-85
2022/03/11 03:25:05;;;;;;;16.50;5.05;;;-1.10;78.40;;;;;;5019098;28;20018;-83
2022/03/11 03:27:31;;;;;;;18.27;5.63;;;-1.10;78.40;;;;;;5019226;28;20015;-85
2022/03/11 03:29:57;;;;;;;12.15;5.00;;;-1.10;78.40;;;;;;5019062;28;20029;-84
2022/03/11 03:32:23;;;;;;;11.15;5.22;;;-1.20;78.00;;;;;;5018259;28;20014;-85
2022/03/11 03:34:50;;;;;;;10.82;5.10;;;-1.20;78.20;;;;;;5018357;28;20042;-84
2022/03/11 03:37:16;;;;;;;18.55;5.72;;;-1.20;77.30;;;;;;4985577;28;20045;-84
2022/03/11 03:39:42;;;;;;;12.40;5.60;;;-1.20;77.40;;;;;;5018151;28;20022;-84
2022/03/11 03:42:08;;;;;;;13.25;5.95;;;-1.20;76.80;;;;;;5018285;28;20018;-85
2022/03/11 03:44:35;;;;;;;14.40;5.57;;;-1.20;76.40;;;;;;5017612;28;20054;-84
2022/03/11 03:47:01;;;;;;;10.98;5.53;;;-1.30;76.20;;;;;;5018180;28;20038;-85
2022/03/11 03:49:28;;;;;;;10.77;5.00;;;-1.30;76.30;;;;;;5036812;28;20018;-84
2022/03/11 03:51:54;;;;;;;10.80;4.68;;;-1.30;76.20;;;;;;5036821;28;20032;-85
2022/03/11 03:54:22;;;;;;;13.18;5.78;;;-1.30;76.80;;;;;;5037406;28;20029;-84
2022/03/11 03:56:48;;;;;;;14.75;6.18;;;-1.30;76.60;;;;;;5018712;28;20018;-85
2022/03/11 03:59:15;;;;;;;15.23;5.93;;;-1.40;76.40;;;;;;5021349;28;20034;-85
2022/03/11 04:01:43;;;;;;;13.52;5.60;;;-1.40;76.70;;;;;;4997221;28;20086;-86
2022/03/11 04:04:11;;;;;;;13.20;5.82;;;-1.50;76.90;;;;;;5004374;28;20038;-85
2022/03/11 04:06:39;;;;;;;13.45;5.50;;;-1.40;76.50;;;;;;5041249;28;20038;-85
2022/03/11 04:09:07;;;;;;;19.48;5.82;;;-1.50;76.70;;;;;;5041456;28;20057;-84
2022/03/11 04:11:33;;;;;;;10.90;5.70;;;-1.40;76.70;;;;;;5061451;23;20048;-81
2022/03/11 04:13:59;;;;;;;13.50;5.25;;;-1.50;76.70;;;;;;5024035;28;20033;-83
2022/03/11 04:16:27;;;;;;;12.05;5.53;;;-1.50;76.80;;;;;;5040346;28;20018;-83
2022/03/11 04:18:52;;;;;;;12.05;5.25;;;-1.40;77.00;;;;;;5040067;28;20038;-83
2022/03/11 04:21:19;;;;;;;16.88;5.65;;;-1.40;76.90;;;;;;5037666;28;20045;-84
2022/03/11 04:23:48;;;;;;;14.52;5.95;;;-1.50;76.90;;;;;;5038196;28;20030;-83
2022/03/11 04:26:14;;;;;;;11.98;5.28;;;-1.50;77.00;;;;;;5038273;28;20006;-85
2022/03/11 04:28:41;;;;;;;14.90;6.00;;;-1.50;77.20;;;;;;5040496;28;20038;-85
2022/03/11 04:31:09;;;;;;;15.15;5.80;;;-1.50;77.10;;;;;;5023581;28;20074;-84
2022/03/11 04:33:37;;;;;;;14.25;6.57;;;-1.60;77.00;;;;;;5039516;28;20050;-83
2022/03/11 04:36:04;;;;;;;14.90;5.55;;;-1.60;77.30;;;;;;5040619;28;20010;-83
2022/03/11 04:38:31;;;;;;;11.18;5.78;;;-1.60;77.60;;;;;;5040510;28;20034;-83
2022/03/11 04:40:57;;;;;;;12.07;5.68;;;-1.60;77.50;;;;;;5039732;28;20018;-84
2022/03/11 04:43:25;;;;;;;17.17;6.03;;;-1.70;77.40;;;;;;5040020;28;20061;-84
2022/03/11 04:45:51;;;;;;;14.73;5.80;;;-1.70;77.50;;;;;;5040533;28;20014;-83
2022/03/11 04:48:18;;;;;;;13.73;6.28;;;-1.70;77.90;;;;;;5040559;28;20041;-84
2022/03/11 04:50:44;;;;;;;12.57;5.43;;;-1.70;78.00;;;;;;5036350;28;20505;-85
2022/03/11 04:53:10;;;;;;;11.43;5.57;;;-1.80;78.20;;;;;;5036244;28;20042;-87
2022/03/11 04:55:36;;;;;;;14.95;5.82;;;-1.80;78.30;;;;;;5040039;28;20038;-82
2022/03/11 04:58:03;;;;;;;26.02;7.57;;;-1.80;78.50;;;;;;5040309;28;20041;-84
2022/03/11 05:00:29;;;;;;;16.85;6.22;;;-1.80;78.40;;;;;;5039215;28;20018;-83
2022/03/11 05:02:55;;;;;;;14.45;5.47;;;-1.80;78.70;;;;;;5039416;28;20105;-83
2022/03/11 05:05:21;;;;;;;12.95;5.97;;;-1.80;78.80;;;;;;5039793;28;20022;-84
2022/03/11 05:07:47;;;;;;;17.75;6.18;;;-1.80;78.90;;;;;;5037960;28;20038;-85
2022/03/11 05:10:16;;;;;;;13.88;5.95;;;-1.90;78.80;;;;;;5038755;28;20022;-86
2022/03/11 05:12:42;;;;;;;13.73;6.20;;;-1.90;79.10;;;;;;5038761;28;20046;-86
2022/03/11 05:15:10;;;;;;;14.15;6.82;;;-1.90;79.70;;;;;;5038889;28;20038;-85
2022/03/11 05:17:36;;;;;;;14.88;6.32;;;-1.90;79.30;;;;;;5035578;28;20034;-84
2022/03/11 05:20:06;;;;;;;16.20;6.53;;;-2.00;79.60;;;;;;5031343;28;20057;-85
2022/03/11 05:22:33;;;;;;;17.10;6.55;;;-1.90;80.00;;;;;;5027089;28;20041;-84
2022/03/11 05:24:59;;;;;;;15.05;6.32;;;-1.90;79.90;;;;;;5031844;28;20033;-86
2022/03/11 05:27:26;;;;;;;14.40;5.70;;;-1.90;79.80;;;;;;5034342;28;20030;-84
2022/03/11 05:29:52;;;;;;;15.25;6.78;;;-1.90;80.30;;;;;;5034431;28;20049;-85
2022/03/11 05:32:20;;;;;;;14.85;5.85;;;-1.90;80.00;;;;;;5037295;28;20064;-87
2022/03/11 05:34:47;;;;;;;12.65;5.88;;;-1.90;80.00;;;;;;5039860;28;20010;-85
2022/03/11 05:37:13;;;;;;;21.83;6.15;;;-1.90;80.00;;;;;;5029897;28;20110;-85
2022/03/11 05:39:39;;;;;;;13.52;7.10;;;-1.90;79.90;;;;;;5028154;28;20002;-85
2022/03/11 05:42:07;;;;;;;18.67;6.32;;;-1.90;79.70;;;;;;5038442;28;20022;-84
2022/03/11 05:44:34;;;;;;;16.42;6.75;;;-1.90;79.50;;;;;;5038133;28;20014;-83
2022/03/11 05:47:00;;;;;;;15.48;6.35;;;-1.90;79.50;;;;;;5035364;28;20096;-91
2022/03/11 05:49:26;;;;;;;14.00;5.78;;;-1.80;79.80;;;;;;5025189;28;20030;-89
2022/03/11 05:51:53;;;;;;;14.70;6.03;;;-1.80;79.60;;;;;;5026756;28;20030;-86
2022/03/11 05:54:18;;;;;;;16.20;5.75;;;-1.80;78.90;;;;;;5029498;28;20118;-87
2022/03/11 05:56:50;;;;;;;17.23;6.53;;;-1.80;78.60;;;;;;5030932;28;20048;-86
2022/03/11 05:59:16;;;;;;;15.27;6.38;;;-1.80;78.50;;;;;;5030938;28;20022;-88
2022/03/11 06:01:41;;;;;;;21.05;6.70;;;-1.80;78.90;;;;;;5027270;28;20045;-87
2022/03/11 06:04:07;;;;;;;22.23;6.47;;;-1.70;78.30;;;;;;5053967;28;20208;-86
2022/03/11 06:06:34;;;;;;;25.25;6.32;;;-1.70;78.50;;;;;;5027353;28;20022;-85
2022/03/11 06:09:02;;;;;;;14.80;6.88;;;-1.60;78.30;;;;;;5027633;28;20148;-86
2022/03/11 06:11:28;;;;;;;14.52;6.28;;;-1.60;77.60;;;;;;5025927;28;20049;-87
2022/03/11 06:13:54;;;;;;;17.38;6.30;;;-1.50;77.90;;;;;;5024634;28;20033;-87
2022/03/11 06:16:20;;;;;;;18.67;6.28;;;-1.60;77.60;;;;;;5025166;28;20032;-88
2022/03/11 06:18:46;;;;;;;14.38;6.22;;;-1.50;77.40;;;;;;5033681;28;20025;-89
2022/03/11 06:21:12;;;;;;;12.70;5.68;;;-1.50;77.20;;;;;;5019226;28;20026;-86
2022/03/11 06:23:38;;;;;;;13.57;6.20;;;-1.40;77.40;;;;;;5023077;28;20126;-83
2022/03/11 06:26:04;;;;;;;20.00;6.00;;;-1.40;77.40;;;;;;5020919;28;20049;-87
2022/03/11 06:28:31;;;;;;;14.57;5.90;;;-1.30;77.60;;;;;;5021023;28;20030;-88
2022/03/11 06:30:57;;;;;;;14.27;6.28;;;-1.20;77.20;;;;;;5026508;28;20018;-89
2022/03/11 06:33:24;;;;;;;21.67;6.38;;;-1.20;76.50;;;;;;5009398;28;20065;-90
2022/03/11 06:35:51;;;;;;;15.38;6.28;;;-1.20;75.80;;;;;;5030435;28;20022;-90
2022/03/11 06:38:18;;;;;;;18.20;6.80;;;-1.30;75.80;;;;;;5022441;28;20513;-88
2022/03/11 06:40:49;;;;;;;12.80;5.90;;;-1.20;75.60;;;;;;5021110;28;20022;-89
2022/03/11 06:43:19;;;;;;;15.48;5.78;;;-1.10;75.50;;;;;;5007399;28;20101;-86
2022/03/11 06:45:46;;;;;;;19.20;5.63;;;-1.00;75.10;;;;;;5021843;28;20026;-86
2022/03/11 06:48:25;;;;;;;19.45;7.35;;;-0.90;74.60;;;;;;5027487;28;20025;-87
2022/03/11 06:50:52;;;;;;;21.45;8.05;;;-0.90;74.10;;;;;;5036261;28;20049;-87
2022/03/11 06:53:18;;;;;;;16.40;5.68;;;-0.90;73.90;;;;;;5037177;28;20033;-88
2022/03/11 06:55:44;;;;;;;14.85;6.35;;;-0.80;73.90;;;;;;5033530;28;20069;-86
2022/03/11 06:58:10;;;;;;;14.55;5.57;;;-0.80;73.40;;;;;;5013260;28;20033;-86
2022/03/11 07:00:36;;;;;;;20.70;6.15;;;-0.80;73.40;;;;;;5035283;28;20022;-87
2022/03/11 07:03:02;;;;;;;14.55;5.72;;;-0.80;73.50;;;;;;5036916;28;20010;-86
2022/03/11 07:05:29;;;;;;;14.07;5.45;;;-0.80;73.70;;;;;;5036459;28;20014;-87
2022/03/11 07:07:54;;;;;;;16.20;6.13;;;-0.70;74.20;;;;;;5036738;28;20022;-87
2022/03/11 07:10:21;;;;;;;17.20;5.65;;;-0.70;73.60;;;;;;5019146;28;20550;-86
2022/03/11 07:12:47;;;;;;;17.73;6.28;;;-0.60;73.80;;;;;;5008607;28;20034;-87
2022/03/11 07:15:13;;;;;;;13.68;5.57;;;-0.60;73.30;;;;;;5023111;28;20061;-86
2022/03/11 07:17:38;;;;;;;17.17;6.03;;;-0.60;72.90;;;;;;5022989;28;20018;-86
2022/03/11 07:20:05;;;;;;;17.80;5.93;;;-0.50;72.80;;;;;;5025296;28;20092;-83
2022/03/11 07:22:34;;;;;;;14.65;5.75;;;-0.50;72.60;;;;;;5035239;28;20021;-85
2022/03/11 07:25:02;;;;;;;13.95;6.97;;;-0.40;72.30;;;;;;5034180;28;20030;-83
2022/03/11 07:27:28;;;;;;;11.38;5.70;;;-0.50;72.10;;;;;;5032816;28;20077;-86
2022/03/11 07:29:56;;;;;;;15.68;6.22;;;-0.30;72.20;;;;;;5035504;28;20022;-87
2022/03/11 07:32:23;;;;;;;13.05;6.28;;;-0.30;71.80;;;;;;5036806;28;20042;-84
2022/03/11 07:34:50;;;;;;;14.88;5.43;;;-0.30;71.70;;;;;;5034615;28;20221;-83
2022/03/11 07:37:16;;;;;;;19.85;6.53;;;-0.20;71.60;;;;;;5032049;28;20030;-86
2022/03/11 07:39:45;;;;;;;17.38;6.68;;;-0.10;71.20;;;;;;5028762;28;20029;-84
2022/03/11 07:42:12;;;;;;;13.95;6.50;;;-0.10;70.70;;;;;;5033325;28;20033;-85
2022/03/11 07:44:42;;;;;;;12.38;5.63;;;-0.10;71.00;;;;;;5026940;28;20034;-85
2022/03/11 07:47:08;;;;;;;13.15;6.22;;;-0.10;70.40;;;;;;5034640;28;20052;-87
2022/03/11 07:49:34;;;;;;;21.17;7.00;;;0.00;70.50;;;;;;5025609;28;20112;-85
2022/03/11 07:52:02;;;;;;;13.77;6.13;;;0.00;70.00;;;;;;5025873;28;20018;-87
2022/03/11 07:54:28;;;;;;;17.38;6.93;;;0.10;69.80;;;;;;5025875;28;20069;-86
2022/03/11 07:56:54;;;;;;;12.13;5.63;;;0.00;69.70;;;;;;5042229;28;20080;-84
2022/03/11 07:59:20;;;;;;;16.40;5.78;;;0.00;69.90;;;;;;5030441;28;20022;-85
2022/03/11 08:01:46;;;;;;;11.73;4.95;;;0.10;70.00;;;;;;5027386;28;20397;-85
2022/03/11 08:04:13;;;;;;;12.23;5.68;;;0.20;69.80;;;;;;5027031;28;20026;-87
2022/03/11 08:06:43;;;;;;;12.27;5.53;;;0.30;69.30;;;;;;5024785;28;20030;-85
2022/03/11 08:09:09;;;;;;;12.32;5.68;;;0.30;69.10;;;;;;5023686;28;20030;-85
2022/03/11 08:11:36;;;;;;;14.30;5.90;;;0.40;69.00;;;;;;5036506;28;20046;-83
2022/03/11 08:14:02;;;;;;;17.80;5.68;;;0.40;68.60;;;;;;5036303;28;20041;-85
2022/03/11 08:16:28;;;;;;;13.45;5.90;;;0.50;68.60;;;;;;5037422;28;20038;-85
2022/03/11 08:18:53;;;;;;;13.55;5.55;;;0.50;68.10;;;;;;5036533;28;20022;-86
2022/03/11 08:21:20;;;;;;;14.52;6.18;;;0.50;67.80;;;;;;5023300;28;20026;-85
2022/03/11 08:23:45;;;;;;;15.98;5.25;;;0.50;67.60;;;;;;5024281;28;20034;-84
2022/03/11 08:26:12;;;;;;;10.77;5.30;;;0.40;67.80;;;;;;5030867;28;20014;-85
2022/03/11 08:28:38;;;;;;;15.95;5.63;;;0.50;68.00;;;;;;5038361;28;20030;-83
2022/03/11 08:31:07;;;;;;;16.10;5.93;;;0.60;67.80;;;;;;5034719;28;20017;-84
2022/03/11 08:33:35;;;;;;;10.60;5.35;;;0.80;67.70;;;;;;5034750;28;20085;-83
2022/03/11 08:36:01;;;;;;;15.93;5.65;;;0.80;66.60;;;;;;5028772;28;20397;-85
2022/03/11 08:38:27;;;;;;;18.45;6.68;;;0.80;66.50;;;;;;5030090;28;20101;-85
2022/03/11 08:40:53;;;;;;;13.23;5.60;;;0.90;66.90;;;;;;5028107;28;20026;-85
2022/03/11 08:43:19;;;;;;;17.52;5.95;;;0.90;66.80;;;;;;5005677;28;20040;-86
2022/03/11 08:45:45;;;;;;;12.07;5.65;;;1.10;67.00;;;;;;5021066;28;20029;-86
2022/03/11 08:48:11;;;;;;;12.43;5.65;;;1.10;66.40;;;;;;4988446;28;20066;-85
2022/03/11 08:50:36;;;;;;;20.48;5.88;;;1.20;66.50;;;;;;5022162;28;20037;-86
2022/03/11 08:53:02;;;;;;;10.52;5.43;;;1.10;65.90;;;;;;5021997;28;20113;-83
2022/03/11 08:55:28;;;;;;;12.50;5.55;;;1.00;65.90;;;;;;5022745;28;20022;-86
2022/03/11 08:57:54;;;;;;;11.82;5.72;;;0.90;65.70;;;;;;5022350;28;20113;-85
2022/03/11 09:00:22;;;;;;;15.80;5.78;;;0.90;65.90;;;;;;5022038;28;20041;-85
2022/03/11 09:02:49;;;;;;;20.40;5.90;;;1.10;66.20;;;;;;5020510;28;20040;-84
2022/03/11 09:05:17;;;;;;;17.10;5.93;;;1.40;65.70;;;;;;5021671;28;20018;-85
2022/03/11 09:07:43;;;;;;;15.30;5.72;;;1.80;65.80;;;;;;5023358;28;20081;-85
2022/03/11 09:10:10;;;;;;;12.30;5.70;;;2.30;65.00;;;;;;5021943;28;20037;-85
2022/03/11 09:12:37;;;;;;;11.48;5.25;;;2.60;64.30;;;;;;5033423;28;20016;-85
2022/03/11 09:15:04;;;;;;;18.30;5.70;;;3.00;63.30;;;;;;5025051;28;20045;-85
2022/03/11 09:17:30;;;;;;;14.32;5.70;;;3.70;62.10;;;;;;5026354;28;20034;-86
2022/03/11 09:19:56;;;;;;;11.32;5.90;;;4.40;61.40;;;;;;5036093;28;20038;-84
2022/03/11 09:22:22;;;;;;;14.00;5.03;;;4.90;60.30;;;;;;5037901;28;20249;-84
2022/03/11 09:24:48;;;;;;;15.80;5.78;;;4.90;59.60;;;;;;5038299;28;20026;-83
2022/03/11 09:27:16;;;;;;;14.52;6.60;;;5.60;58.20;;;;;;5022913;28;20394;-86
2022/03/11 09:29:42;;;;;;;12.35;5.68;;;6.30;57.50;;;;;;5022099;28;20114;-86
2022/03/11 09:32:08;;;;;;;20.13;6.35;;;6.80;56.30;;;;;;5005354;28;20061;-85
2022/03/11 09:34:36;;;;;;;14.82;6.32;;;7.20;55.10;;;;;;5025323;28;20505;-87
2022/03/11 09:37:03;;;;;;;11.38;5.60;;;7.80;54.20;;;;;;5006409;28;20025;-86
2022/03/11 09:39:28;;;;;;;12.38;6.03;;;8.40;52.90;;;;;;5025391;28;20033;-85
2022/03/11 09:41:55;;;;;;;15.77;6.15;;;8.90;52.60;;;;;;5012187;28;20054;-84
2022/03/11 09:44:21;;;;;;;15.35;6.13;;;9.10;52.20;;;;;;5031470;28;20021;-85
2022/03/11 09:46:47;;;;;;;11.25;6.25;;;9.50;51.40;;;;;;5031808;28;20033;-87
2022/03/11 09:49:17;;;;;;;12.38;6.40;;;9.40;50.50;;;;;;5025133;28;20026;-88
2022/03/11 09:51:45;;;;;;;11.20;5.85;;;10.10;50.20;;;;;;5026904;28;20038;-87
2022/03/11 09:54:12;;;;;;;10.13;5.35;;;10.50;49.60;;;;;;5029835;28;20033;-86
2022/03/11 09:56:39;;;;;;;15.48;6.00;;;11.30;48.80;;;;;;5029173;28;20038;-87
2022/03/11 09:59:09;;;;;;;10.48;5.85;;;11.10;47.80;;;;;;5035838;28;20006;-88
2022/03/11 10:01:36;;;;;;;12.55;6.20;;;11.60;47.90;;;;;;5026501;28;20029;-87
2022/03/11 10:04:04;;;;;;;11.57;5.65;;;11.50;47.20;;;;;;5024170;28;20030;-86
2022/03/11 10:06:59;;;;;;;12.43;5.30;;;11.30;47.40;;;;;;5028992;28;20128;-87
2022/03/11 10:09:25;;;;;;;16.85;6.15;;;11.60;47.40;;;;;;5019007;28;20147;-88
2022/03/11 10:11:52;;;;;;;13.50;6.05;;;12.10;47.10;;;;;;5027016;28;20026;-86
2022/03/11 10:14:37;;;;;;;10.52;5.80;;;12.60;46.40;;;;;;5033511;28;20061;-83
2022/03/11 10:17:17;;;;;;;19.63;6.95;;;13.20;45.60;;;;;;5020466;28;20037;-87
2022/03/11 10:20:02;;;;;;;10.07;5.95;;;12.90;45.10;;;;;;5049999;23;20049;-86
2022/03/11 10:22:29;;;;;;;20.10;12.00;;;13.20;44.00;;;;;;5018612;28;20048;-86
2022/03/11 10:24:55;;;;;;;16.02;6.22;;;13.30;44.40;;;;;;4998949;28;20091;-87
2022/03/11 10:27:23;;;;;;;11.98;6.78;;;11.80;44.30;;;;;;5048428;28;20061;-87
2022/03/11 10:29:51;;;;;;;12.23;6.38;;;12.00;45.30;;;;;;5009660;28;20035;-88
2022/03/11 10:32:24;;;;;;;17.85;6.60;;;12.60;45.10;;;;;;4994812;28;20045;-88
2022/03/11 10:34:50;;;;;;;11.00;6.22;;;12.40;44.70;;;;;;4988768;28;20039;-88
2022/03/11 10:37:16;;;;;;;12.40;6.10;;;12.80;43.90;;;;;;4997899;28;20023;-87
2022/03/11 10:39:44;;;;;;;15.25;5.80;;;13.50;44.20;;;;;;5024113;28;20054;-89
2022/03/11 10:42:17;;;;;;;12.43;6.07;;;14.30;43.70;;;;;;5009216;28;20024;-87
2022/03/11 10:45:06;;;;;;;9.43;5.40;;;14.80;43.00;;;;;;5007168;28;20045;-89
2022/03/11 10:47:38;;;;;;;10.70;5.70;;;14.70;42.30;;;;;;5045774;28;20038;-88
2022/03/11 10:50:07;;;;;;;13.27;6.10;;;14.10;42.10;;;;;;5012275;28;20030;-87
2022/03/11 10:52:36;;;;;;;17.13;5.80;;;14.30;42.90;;;;;;5016667;28;20017;-87
2022/03/11 10:55:33;;;;;;;13.13;6.43;;;14.30;42.40;;;;;;5009827;28;20054;-88
2022/03/11 10:58:01;;;;;;;8.57;5.00;;;13.80;42.40;;;;;;4994468;28;20050;-86
2022/03/11 11:00:28;;;;;;;10.38;6.45;;;13.70;43.20;;;;;;4997705;28;20023;-88
2022/03/11 11:02:58;;;;;;;14.00;5.85;;;13.70;42.40;;;;;;4989801;28;20042;-87
2022/03/11 11:05:26;;;;;;;13.10;7.32;;;13.80;43.00;;;;;;4993570;28;20098;-87
2022/03/11 11:07:53;;;;;;;11.27;6.28;;;14.40;42.60;;;;;;4996249;28;20038;-88
2022/03/11 11:10:21;;;;;;;10.77;6.53;;;14.90;42.60;;;;;;5005117;28;20053;-88
2022/03/11 11:12:48;;;;;;;15.55;6.93;;;14.60;41.90;;;;;;5008012;28;20027;-88
2022/03/11 11:15:17;;;;;;;10.73;6.20;;;15.00;42.60;;;;;;5011540;28;20030;-89
2022/03/11 11:17:52;;;;;;;11.50;5.90;;;14.20;42.40;;;;;;5009213;28;20011;-90
2022/03/11 11:20:21;;;;;;;10.30;5.90;;;14.10;42.30;;;;;;4995298;28;20057;-89
2022/03/11 11:22:51;;;;;;;14.88;5.88;;;14.70;41.50;;;;;;5006917;28;20401;-89
2022/03/11 11:25:19;;;;;;;9.93;6.07;;;15.10;41.50;;;;;;5009262;28;20074;-90
2022/03/11 11:27:46;;;;;;;11.45;6.25;;;15.00;41.50;;;;;;5040215;28;20123;-90
2022/03/11 11:30:20;;;;;;;11.32;6.28;;;15.20;41.20;;;;;;5008026;28;20030;-87
2022/03/11 11:32:48;;;;;;;12.02;6.45;;;15.70;41.20;;;;;;5001922;28;20038;-85
2022/03/11 11:35:37;;;;;;;10.18;5.75;;;16.30;40.60;;;;;;5003837;28;20019;-86
2022/03/11 11:38:07;;;;;;;10.70;5.40;;;17.00;39.70;;;;;;5007874;28;20027;-86
2022/03/11 11:40:38;;;;;;;9.32;5.45;;;16.80;39.50;;;;;;5013832;28;20061;-88
2022/03/11 11:43:13;;;;;;;11.88;6.15;;;17.00;40.20;;;;;;4995964;28;20038;-86
2022/03/11 11:45:52;;;;;;;11.40;6.25;;;17.20;39.60;;;;;;5001125;28;20046;-85
2022/03/11 11:48:33;;;;;;;11.35;5.68;;;16.70;39.40;;;;;;5000470;28;20442;-85
2022/03/11 11:50:59;;;;;;;9.18;5.78;;;16.60;39.40;;;;;;5001393;28;20027;-85
2022/03/11 11:53:40;;;;;;;9.05;6.30;;;16.20;39.20;;;;;;5001498;28;20049;-86
2022/03/11 11:56:28;;;;;;;9.25;5.70;;;14.40;39.90;;;;;;5019808;28;20031;-84
2022/03/11 11:58:56;;;;;;;11.88;6.55;;;14.20;40.60;;;;;;4993478;28;20171;-85
2022/03/11 12:01:42;;;;;;;12.90;6.03;;;14.10;40.90;;;;;;5001512;28;20074;-86
2022/03/11 12:04:39;;;;;;;11.52;5.20;;;14.60;40.80;;;;;;5015340;28;20058;-86
2022/03/11 12:07:17;;;;;;;13.90;5.22;;;15.80;39.70;;;;;;5008406;28;20046;-86
2022/03/11 12:09:55;;;;;;;11.07;6.35;;;16.00;39.20;;;;;;5001667;28;20038;-85
2022/03/11 12:12:21;;;;;;;11.15;5.57;;;16.20;38.70;;;;;;5002084;28;20030;-85
2022/03/11 12:15:11;;;;;;;11.45;5.93;;;16.20;38.60;;;;;;5007554;28;20034;-85
2022/03/11 12:17:42;;;;;;;13.32;6.07;;;16.50;38.90;;;;;;5012753;28;20044;-86
2022/03/11 12:20:45;;;;;;;12.27;5.30;;;17.20;38.60;;;;;;5016925;28;20035;-87
2022/03/11 12:23:11;;;;;;;9.02;5.10;;;16.40;38.10;;;;;;5008527;28;20034;-84
2022/03/11 12:25:41;;;;;;;11.90;6.13;;;17.30;38.10;;;;;;5006978;28;20021;-86
2022/03/11 12:28:39;;;;;;;12.45;6.28;;;17.10;37.70;;;;;;5004891;28;20109;-86
2022/03/11 12:31:24;;;;;;;13.80;5.90;;;17.20;38.00;;;;;;5001092;28;20046;-86
2022/03/11 12:33:51;;;;;;;14.27;5.43;;;17.40;37.80;;;;;;5002138;28;20034;-85
2022/03/11 12:36:27;;;;;;;10.02;5.90;;;17.80;37.90;;;;;;5012295;28;20330;-86
2022/03/11 12:38:53;;;;;;;9.15;5.10;;;18.00;37.50;;;;;;5006882;28;20034;-86
2022/03/11 12:41:24;;;;;;;12.90;5.93;;;17.20;37.40;;;;;;5019248;28;20058;-85
2022/03/11 12:43:51;;;;;;;20.92;5.80;;;15.20;38.50;;;;;;5012221;28;20035;-85
2022/03/11 12:46:16;;;;;;;11.27;5.88;;;15.00;39.00;;;;;;5002468;28;20036;-86